Weather at Glensanda Airstrip

Public forecast

Using degrees Celsius for public forecast. Weather courtesy of forecast.io.

Closest aviation weather report (METAR) to Glensanda Airstrip

Closest report is Oban Airport, 7.6 nm (14.1 km) SE. Retrieved 2021/12/01 08:20 UTC (22 minutes ago):

EGEO 010820Z 02013KT 9999 VCSH FEW019 SCT029 06/03 Q0997

Closest aviation forecast (TAF) to Glensanda Airstrip

Closest forecast is Glasgow International Airport, 55.6 nm (103.1 km) SE. Retrieved 2021/12/01 06:00 UTC (3 hours ago):

TAF EGPF 010504Z 0106/0206 27013KT 9999 SCT020 TEMPO 0106/0109 6000 SHRA BKN012 PROB40 TEMPO 0106/0109 BKN008 BECMG 0107/0110 01012KT BECMG 0118/0121 30006KT